Time;durP1;ratioP1;P1;durP2;ratioP2;P2;SDS_P1;SDS_P2;PMS_P1;PMS_P2;Temp;Humidity;BMP_temperature;BMP_pressure;BME280_temperature;BME280_humidity;BME280_pressure;Samples;Min_cycle;Max_cycle;Signal;HPM_P1;HPM_P2
2021/01/21 00:01:58;;;;;;;9.33;6.30;;;17.60;29.30;;;;;;8397527;28;20033;-54
2021/01/21 00:06:00;;;;;;;7.80;5.97;;;17.60;29.30;;;;;;8393761;28;20040;-55
2021/01/21 00:10:00;;;;;;;10.48;6.55;;;17.60;29.40;;;;;;8391533;28;20421;-54
2021/01/21 00:14:01;;;;;;;9.40;6.67;;;17.50;29.20;;;;;;8392872;28;20586;-54
2021/01/21 00:18:01;;;;;;;9.37;6.03;;;17.50;29.20;;;;;;8392964;28;20028;-55
2021/01/21 00:22:02;;;;;;;10.67;6.10;;;17.50;29.20;;;;;;8395577;28;20068;-55
2021/01/21 00:26:03;;;;;;;7.97;5.93;;;17.50;29.20;;;;;;8392430;28;20405;-55
2021/01/21 00:30:11;;;;;;;10.73;6.00;;;17.50;29.20;;;;;;8392322;28;20036;-55
2021/01/21 00:34:12;;;;;;;10.30;6.38;;;17.50;29.20;;;;;;8390935;28;20033;-54
2021/01/21 00:38:13;;;;;;;9.60;6.57;;;17.50;29.20;;;;;;8396592;28;20055;-55
2021/01/21 00:42:14;;;;;;;;;;;17.50;29.20;;;;;;8392457;28;20183;-54
2021/01/21 00:46:14;;;;;;;10.05;5.78;;;17.50;29.20;;;;;;8389587;28;19912;-54
2021/01/21 00:50:15;;;;;;;10.13;6.53;;;17.50;29.20;;;;;;8391711;28;20036;-54
2021/01/21 00:54:15;;;;;;;10.27;6.70;;;17.50;29.20;;;;;;8392746;28;20447;-54
2021/01/21 00:58:16;;;;;;;8.37;6.17;;;17.50;29.20;;;;;;8393279;28;20057;-54
2021/01/21 01:02:16;;;;;;;9.23;6.27;;;17.50;29.20;;;;;;8391735;28;20040;-54
2021/01/21 01:06:17;;;;;;;8.00;6.03;;;17.50;29.20;;;;;;8390929;28;20037;-54
2021/01/21 01:10:17;;;;;;;8.83;6.07;;;17.40;29.20;;;;;;8392699;28;20049;-54
2021/01/21 01:14:18;;;;;;;8.03;5.63;;;17.40;29.20;;;;;;8429322;28;20036;-54
2021/01/21 01:18:18;;;;;;;6.97;5.27;;;17.40;29.20;;;;;;8397387;28;20060;-54
2021/01/21 01:22:19;;;;;;;9.87;6.43;;;17.40;29.20;;;;;;8389542;28;20043;-54
2021/01/21 01:26:20;;;;;;;7.20;5.90;;;17.40;29.20;;;;;;8391306;28;20040;-54
2021/01/21 01:30:21;;;;;;;7.60;5.57;;;17.40;29.20;;;;;;8395365;28;20055;-54
2021/01/21 01:34:22;;;;;;;8.27;6.27;;;17.40;29.20;;;;;;8389602;28;20060;-54
2021/01/21 01:38:22;;;;;;;8.10;5.30;;;17.40;29.20;;;;;;8411972;28;20048;-54
2021/01/21 01:42:23;;;;;;;8.53;6.40;;;17.40;29.20;;;;;;8412615;28;20044;-54
2021/01/21 01:46:26;;;;;;;6.73;5.53;;;17.40;29.30;;;;;;8389066;27;20029;-54
2021/01/21 01:50:27;;;;;;;8.57;5.97;;;17.40;29.20;;;;;;8394726;28;20456;-54
2021/01/21 01:54:28;;;;;;;8.47;5.70;;;17.40;29.30;;;;;;8390540;28;20170;-54
2021/01/21 01:58:31;;;;;;;8.47;5.33;;;17.40;29.20;;;;;;8393828;28;20032;-54
2021/01/21 02:02:32;;;;;;;8.35;5.60;;;17.40;29.30;;;;;;8397752;28;20037;-54
2021/01/21 02:06:32;;;;;;;9.65;5.80;;;17.30;29.20;;;;;;8401262;28;20138;-53
2021/01/21 02:10:33;;;;;;;7.10;5.37;;;17.40;29.30;;;;;;8395868;27;20428;-54
2021/01/21 02:14:48;;;;;;;8.00;5.27;;;17.40;29.20;;;;;;8397480;28;20142;-55
2021/01/21 02:19:13;;;;;;;8.02;5.65;;;17.40;29.20;;;;;;8394760;28;20033;-54
2021/01/21 02:23:38;;;;;;;7.13;5.90;;;17.30;29.20;;;;;;8396495;28;20532;-54
2021/01/21 02:28:13;;;;;;;9.05;5.28;;;17.30;29.20;;;;;;8400537;28;20052;-54
2021/01/21 02:32:34;;;;;;;8.38;5.47;;;17.30;29.20;;;;;;8366007;28;20095;-54
2021/01/21 02:36:44;;;;;;;7.25;5.57;;;17.30;29.20;;;;;;8393439;28;20123;-54
2021/01/21 02:40:46;;;;;;;9.70;6.40;;;17.30;29.20;;;;;;8394442;27;20052;-55
2021/01/21 02:44:47;;;;;;;8.20;5.72;;;17.30;29.20;;;;;;8395736;28;20066;-54
2021/01/21 02:48:50;;;;;;;7.68;5.72;;;17.30;29.20;;;;;;8394483;27;20059;-53
2021/01/21 02:52:56;;;;;;;7.70;5.35;;;17.30;29.20;;;;;;8399628;28;20485;-53
2021/01/21 02:57:07;;;;;;;7.72;5.45;;;17.30;29.20;;;;;;8395292;27;20033;-54
2021/01/21 03:01:09;;;;;;;7.78;5.57;;;17.30;29.20;;;;;;8393667;28;20043;-54
2021/01/21 03:05:13;;;;;;;8.35;5.40;;;17.30;29.20;;;;;;8395456;28;20044;-54
2021/01/21 03:09:13;;;;;;;7.45;5.78;;;17.30;29.20;;;;;;8398246;28;20504;-54
2021/01/21 03:13:14;;;;;;;7.83;5.40;;;17.30;29.20;;;;;;8393201;28;20032;-55
2021/01/21 03:17:14;;;;;;;8.17;5.07;;;17.30;29.20;;;;;;8394802;28;20040;-54
2021/01/21 03:21:15;;;;;;;8.53;5.03;;;17.30;29.20;;;;;;8405720;28;20047;-55
2021/01/21 03:25:15;;;;;;;8.30;5.57;;;17.20;29.20;;;;;;8425183;28;20413;-54
2021/01/21 03:29:16;;;;;;;7.67;4.90;;;17.30;29.30;;;;;;8432529;28;20414;-55
2021/01/21 03:33:16;;;;;;;21.33;13.37;;;17.20;29.20;;;;;;8402292;27;20040;-54
2021/01/21 03:37:17;;;;;;;7.97;5.50;;;17.20;29.20;;;;;;8392754;28;20043;-54
2021/01/21 03:41:17;;;;;;;8.40;5.70;;;17.20;29.20;;;;;;8394051;28;20401;-54
2021/01/21 03:45:18;;;;;;;6.67;4.73;;;17.20;29.20;;;;;;8398349;28;20044;-55
2021/01/21 03:49:19;;;;;;;6.47;4.63;;;17.20;29.20;;;;;;8391812;28;20555;-55
2021/01/21 03:53:19;;;;;;;6.97;5.50;;;17.20;29.20;;;;;;8393534;28;20036;-54
2021/01/21 03:57:20;;;;;;;8.17;5.30;;;17.20;29.20;;;;;;8394058;28;20363;-54
2021/01/21 04:01:20;;;;;;;7.67;5.27;;;17.20;29.20;;;;;;8396107;28;20036;-55
2021/01/21 04:05:21;;;;;;;7.93;5.00;;;17.20;29.20;;;;;;8393427;28;20120;-54
2021/01/21 04:09:21;;;;;;;5.97;4.70;;;17.20;29.20;;;;;;8392992;28;20060;-55
2021/01/21 04:13:22;;;;;;;7.83;5.07;;;17.20;29.20;;;;;;8391974;27;20066;-54
2021/01/21 04:17:22;;;;;;;7.07;5.07;;;17.20;29.30;;;;;;8393288;28;20048;-54
2021/01/21 04:21:23;;;;;;;6.50;4.90;;;17.20;29.30;;;;;;8396791;28;20051;-54
2021/01/21 04:25:24;;;;;;;7.30;4.93;;;17.20;29.30;;;;;;8390775;28;20397;-54
2021/01/21 04:29:24;;;;;;;5.90;4.80;;;17.30;29.30;;;;;;8392310;28;20040;-54
2021/01/21 04:33:25;;;;;;;5.87;4.60;;;17.30;29.20;;;;;;8392049;27;20036;-53
2021/01/21 04:37:25;;;;;;;7.40;4.90;;;17.40;29.20;;;;;;8394971;27;20557;-54
2021/01/21 04:41:26;;;;;;;7.83;4.83;;;17.40;29.20;;;;;;8392130;28;20095;-54
2021/01/21 04:45:27;;;;;;;7.93;5.10;;;17.40;29.20;;;;;;8391962;28;20492;-55
2021/01/21 04:49:33;;;;;;;6.00;4.80;;;17.50;29.20;;;;;;8389993;28;20044;-54
2021/01/21 04:53:37;;;;;;;7.10;5.32;;;17.50;29.20;;;;;;8391542;28;20068;-55
2021/01/21 04:57:45;;;;;;;7.88;5.20;;;17.50;29.20;;;;;;8395933;27;20119;-55
2021/01/21 05:01:46;;;;;;;6.97;4.65;;;17.50;29.20;;;;;;8390262;28;20397;-55
2021/01/21 05:05:47;;;;;;;5.60;4.73;;;17.50;29.20;;;;;;8391163;28;20106;-53
2021/01/21 05:09:48;;;;;;;6.68;4.82;;;17.50;29.10;;;;;;8389852;28;20068;-54
2021/01/21 05:13:48;;;;;;;7.63;4.90;;;17.50;29.20;;;;;;8395451;28;20432;-54
2021/01/21 05:17:50;;;;;;;6.67;5.03;;;17.50;29.20;;;;;;8390940;28;20128;-53
2021/01/21 05:21:50;;;;;;;7.25;4.88;;;17.50;29.20;;;;;;8389307;27;20037;-53
2021/01/21 05:25:52;;;;;;;7.67;5.27;;;17.50;29.20;;;;;;8391397;28;20036;-54
2021/01/21 05:29:52;;;;;;;7.28;4.65;;;17.50;29.20;;;;;;8393004;28;20041;-54
2021/01/21 05:33:55;;;;;;;6.07;4.17;;;17.50;29.20;;;;;;8423909;28;20488;-54
2021/01/21 05:37:58;;;;;;;6.22;4.43;;;17.40;29.20;;;;;;8400355;28;20036;-54
2021/01/21 05:41:59;;;;;;;5.70;4.45;;;17.40;29.20;;;;;;8391066;28;20040;-54
2021/01/21 05:46:00;;;;;;;6.97;4.32;;;17.40;29.20;;;;;;8388988;28;20056;-54
2021/01/21 05:50:01;;;;;;;5.83;4.03;;;17.40;29.20;;;;;;8395309;28;20162;-54
2021/01/21 05:54:02;;;;;;;6.18;4.65;;;17.40;29.20;;;;;;8390704;28;20045;-53
2021/01/21 05:58:04;;;;;;;6.53;4.40;;;17.40;29.20;;;;;;8388839;28;20041;-54
2021/01/21 06:02:04;;;;;;;6.22;4.32;;;17.40;29.20;;;;;;8390507;27;20041;-53
2021/01/21 06:06:06;;;;;;;6.90;5.27;;;17.40;29.20;;;;;;8394759;28;20094;-54
2021/01/21 06:10:08;;;;;;;7.70;4.65;;;17.40;29.20;;;;;;8388766;27;20033;-54
2021/01/21 06:14:12;;;;;;;5.90;4.10;;;17.40;29.20;;;;;;8390375;28;20142;-54
2021/01/21 06:18:12;;;;;;;6.15;4.72;;;17.40;29.20;;;;;;8390455;28;20045;-54
2021/01/21 06:22:16;;;;;;;7.27;5.10;;;17.40;29.20;;;;;;8388563;28;21792;-53
2021/01/21 06:26:20;;;;;;;7.78;4.78;;;17.40;29.20;;;;;;8394377;28;20044;-54
2021/01/21 06:30:21;;;;;;;7.05;4.47;;;17.40;29.30;;;;;;8390860;28;20048;-54
2021/01/21 06:34:30;;;;;;;6.00;4.43;;;17.40;29.20;;;;;;8388374;28;20115;-53
2021/01/21 06:38:40;;;;;;;5.47;4.25;;;17.40;29.30;;;;;;8390125;28;20798;-53
2021/01/21 06:42:59;;;;;;;5.68;4.28;;;17.40;29.30;;;;;;8392179;28;20032;-54
2021/01/21 06:47:00;;;;;;;4.90;3.95;;;17.40;29.20;;;;;;8365661;28;20044;-54
2021/01/21 06:51:09;;;;;;;4.90;4.40;;;17.40;29.30;;;;;;8414492;28;20071;-53
2021/01/21 06:55:11;;;;;;;7.90;5.05;;;17.30;29.20;;;;;;8410067;28;20048;-54
2021/01/21 06:59:12;;;;;;;5.90;4.45;;;17.40;29.30;;;;;;8395585;28;20090;-54
2021/01/21 07:03:41;;;;;;;7.13;4.70;;;17.40;29.20;;;;;;8399824;28;20040;-53
2021/01/21 07:08:08;;;;;;;7.22;4.47;;;17.30;29.20;;;;;;8364560;28;20048;-54
2021/01/21 07:12:13;;;;;;;5.95;3.88;;;17.40;29.30;;;;;;8391412;28;20528;-53
2021/01/21 07:16:14;;;;;;;5.10;3.78;;;17.30;29.20;;;;;;8393331;28;20504;-54
2021/01/21 07:20:15;;;;;;;4.80;4.10;;;17.40;29.30;;;;;;8394766;28;20078;-54
2021/01/21 07:24:19;;;;;;;5.78;4.25;;;17.40;29.30;;;;;;8397781;28;20047;-54
2021/01/21 07:28:20;;;;;;;7.75;4.38;;;17.30;29.70;;;;;;8395646;27;20053;-54
2021/01/21 07:32:27;;;;;;;6.83;4.53;;;17.30;29.20;;;;;;8394400;28;20389;-54
2021/01/21 07:36:29;;;;;;;5.40;4.32;;;17.30;29.30;;;;;;8394249;28;20123;-54
2021/01/21 07:40:43;;;;;;;;;;;17.30;29.30;;;;;;8397244;27;20497;-53
2021/01/21 07:45:01;;;;;;;8.68;5.00;;;17.30;29.30;;;;;;8431656;28;19969;-54
2021/01/21 07:49:27;;;;;;;7.10;4.53;;;17.30;29.30;;;;;;8392471;28;20044;-53
2021/01/21 07:53:27;;;;;;;4.78;4.00;;;17.30;29.30;;;;;;8392891;28;20045;-54
2021/01/21 07:57:28;;;;;;;5.23;4.27;;;17.30;29.30;;;;;;8393452;28;20464;-54
2021/01/21 08:01:28;;;;;;;6.10;4.30;;;17.30;29.30;;;;;;8391930;28;20122;-54
2021/01/21 08:05:29;;;;;;;5.60;4.10;;;17.30;29.30;;;;;;8397539;28;20481;-53
2021/01/21 08:09:29;;;;;;;4.57;4.17;;;17.30;29.40;;;;;;8422088;28;20526;-54
2021/01/21 08:13:30;;;;;;;5.70;4.13;;;17.30;29.30;;;;;;8423688;28;20128;-54
2021/01/21 08:17:30;;;;;;;6.10;4.43;;;17.30;29.30;;;;;;8416248;28;20059;-54
2021/01/21 08:21:31;;;;;;;5.70;4.03;;;17.30;29.30;;;;;;8393930;28;20043;-54
2021/01/21 08:25:45;;;;;;;7.00;4.53;;;17.30;29.30;;;;;;8394258;28;20120;-54
2021/01/21 08:29:45;;;;;;;4.85;3.85;;;17.30;29.30;;;;;;8392366;28;20048;-54
2021/01/21 08:33:51;;;;;;;7.33;4.70;;;17.30;29.30;;;;;;8390414;28;20158;-49
2021/01/21 08:37:55;;;;;;;5.80;4.45;;;17.40;29.40;;;;;;8392924;28;20063;-54
2021/01/21 08:41:56;;;;;;;5.28;3.95;;;17.30;29.30;;;;;;8396539;28;20121;-53
2021/01/21 08:45:57;;;;;;;5.65;4.35;;;17.30;29.30;;;;;;8390071;27;20067;-53
2021/01/21 08:49:57;;;;;;;6.97;4.40;;;17.30;29.30;;;;;;8391653;28;20387;-55
2021/01/21 08:54:10;;;;;;;6.80;5.00;;;17.30;29.40;;;;;;8391720;28;20125;-54
2021/01/21 08:58:13;;;;;;;5.10;4.53;;;17.30;29.40;;;;;;8391464;28;20039;-54
2021/01/21 09:02:13;;;;;;;4.82;3.83;;;17.30;29.40;;;;;;8429502;28;20581;-54
2021/01/21 09:06:17;;;;;;;6.13;4.37;;;17.30;29.40;;;;;;8398528;28;20044;-54
2021/01/21 09:10:18;;;;;;;6.70;4.30;;;17.30;29.40;;;;;;8389212;28;20143;-54
2021/01/21 09:14:19;;;;;;;5.47;4.03;;;17.30;29.40;;;;;;8391280;28;20443;-55
2021/01/21 09:18:20;;;;;;;6.50;4.30;;;17.30;29.30;;;;;;8395463;28;20131;-54
2021/01/21 09:22:22;;;;;;;5.38;3.95;;;17.30;29.40;;;;;;8389801;28;20036;-54
2021/01/21 09:26:24;;;;;;;6.03;4.25;;;17.40;29.40;;;;;;8410793;28;20123;-54
2021/01/21 09:30:25;;;;;;;7.20;4.55;;;17.30;29.40;;;;;;8413092;28;20068;-53
2021/01/21 09:34:26;;;;;;;5.30;3.83;;;17.40;29.90;;;;;;8389423;28;20110;-54
2021/01/21 09:38:26;;;;;;;5.07;3.90;;;17.40;29.40;;;;;;8394661;28;20040;-55
2021/01/21 09:42:27;;;;;;;5.23;4.00;;;17.40;29.40;;;;;;8390780;27;20033;-54
2021/01/21 09:46:27;;;;;;;6.40;4.30;;;17.40;29.40;;;;;;8388632;28;20021;-54
2021/01/21 09:50:29;;;;;;;5.10;4.20;;;17.40;29.50;;;;;;8394143;28;20083;-54
2021/01/21 09:54:29;;;;;;;6.55;4.53;;;17.40;29.50;;;;;;8428513;28;20031;-55
2021/01/21 09:58:30;;;;;;;6.07;4.53;;;17.40;29.40;;;;;;8393793;28;20043;-54
2021/01/21 10:02:30;;;;;;;6.27;4.70;;;17.40;29.50;;;;;;8390587;28;20037;-54
2021/01/21 10:06:31;;;;;;;5.63;4.23;;;17.40;29.40;;;;;;8390352;28;20051;-54
2021/01/21 10:10:31;;;;;;;5.30;4.13;;;17.40;29.40;;;;;;8393127;28;20041;-55
2021/01/21 10:14:33;;;;;;;6.67;4.33;;;17.40;29.40;;;;;;8390712;28;20029;-55
2021/01/21 10:18:33;;;;;;;5.40;4.03;;;17.40;29.40;;;;;;8393648;28;20512;-55
2021/01/21 10:22:34;;;;;;;6.87;4.73;;;17.40;29.40;;;;;;8394670;28;20028;-55
2021/01/21 10:26:34;;;;;;;7.20;4.10;;;17.40;29.40;;;;;;8396362;28;20041;-55
2021/01/21 10:30:35;;;;;;;6.03;4.20;;;17.40;29.40;;;;;;8400235;27;20520;-55
2021/01/21 10:34:35;;;;;;;5.70;4.10;;;17.40;29.40;;;;;;8394751;28;20032;-55
2021/01/21 10:38:38;;;;;;;6.50;3.90;;;17.40;29.40;;;;;;8396184;28;20055;-55
2021/01/21 10:42:39;;;;;;;6.22;4.32;;;17.40;29.40;;;;;;8396460;28;20060;-55
2021/01/21 10:46:39;;;;;;;8.13;5.20;;;17.40;29.40;;;;;;8398658;28;20040;-55
2021/01/21 10:50:40;;;;;;;6.10;4.03;;;17.40;29.40;;;;;;8395631;28;20056;-56
2021/01/21 10:54:40;;;;;;;5.50;4.43;;;17.40;29.40;;;;;;8395884;28;20094;-55
2021/01/21 10:58:41;;;;;;;6.63;4.50;;;17.40;29.40;;;;;;8393848;28;20037;-56
2021/01/21 11:02:41;;;;;;;6.03;4.03;;;17.40;29.40;;;;;;8399538;28;20041;-56
2021/01/21 11:06:42;;;;;;;5.13;3.90;;;17.40;29.40;;;;;;8396704;28;20374;-56
2021/01/21 11:10:43;;;;;;;4.83;4.10;;;17.40;29.40;;;;;;8416632;28;20102;-56
2021/01/21 11:14:46;;;;;;;6.13;4.10;;;17.40;29.40;;;;;;8414761;28;20498;-54
2021/01/21 11:18:46;;;;;;;5.93;3.80;;;17.40;29.40;;;;;;8393085;28;20436;-53
2021/01/21 11:22:47;;;;;;;6.57;5.03;;;17.40;29.40;;;;;;8398743;28;20033;-54
2021/01/21 11:26:48;;;;;;;7.20;4.97;;;17.40;29.40;;;;;;8394787;28;20585;-54
2021/01/21 11:30:49;;;;;;;5.53;3.97;;;17.40;29.40;;;;;;8408665;28;20047;-54
2021/01/21 11:34:49;;;;;;;8.00;4.72;;;17.40;29.40;;;;;;8426797;28;20032;-55
2021/01/21 11:38:50;;;;;;;7.60;4.83;;;17.40;29.40;;;;;;8432143;28;20032;-54
2021/01/21 11:42:50;;;;;;;8.80;4.40;;;17.40;29.40;;;;;;8394821;28;20102;-54
2021/01/21 11:46:51;;;;;;;9.37;4.87;;;17.40;29.40;;;;;;8394199;28;20108;-54
2021/01/21 11:50:52;;;;;;;7.13;4.40;;;17.50;29.50;;;;;;8393694;28;20062;-54
2021/01/21 11:54:52;;;;;;;7.00;4.40;;;17.40;29.40;;;;;;8391827;28;20408;-53
2021/01/21 11:58:52;;;;;;;5.73;4.23;;;17.50;29.50;;;;;;8397837;28;20056;-54
2021/01/21 12:02:53;;;;;;;6.43;4.10;;;17.50;29.50;;;;;;8417496;28;20032;-54
2021/01/21 12:06:54;;;;;;;5.30;3.80;;;17.50;29.50;;;;;;8410442;27;20067;-54
2021/01/21 12:10:55;;;;;;;5.77;4.40;;;17.50;29.50;;;;;;8393094;28;20143;-54
2021/01/21 12:14:55;;;;;;;6.63;4.87;;;17.50;29.50;;;;;;8397651;28;20024;-54
2021/01/21 12:18:56;;;;;;;5.73;4.17;;;17.50;29.50;;;;;;8391633;28;20090;-54
2021/01/21 12:22:56;;;;;;;8.73;5.03;;;17.50;29.60;;;;;;8392636;28;20033;-54
2021/01/21 12:26:57;;;;;;;7.57;4.73;;;17.50;29.50;;;;;;8392736;28;20038;-55
2021/01/21 12:30:57;;;;;;;7.00;4.37;;;17.50;29.60;;;;;;8394992;28;20401;-54
2021/01/21 12:34:58;;;;;;;5.23;4.20;;;17.50;29.50;;;;;;8392879;28;20166;-54
2021/01/21 12:38:59;;;;;;;6.20;4.37;;;17.50;29.60;;;;;;8392291;28;20056;-54
2021/01/21 12:42:59;;;;;;;6.90;4.10;;;17.50;29.60;;;;;;8390578;28;20033;-54
2021/01/21 12:47:00;;;;;;;6.17;4.30;;;17.50;29.60;;;;;;8391417;28;20028;-55
2021/01/21 12:51:01;;;;;;;5.53;4.30;;;17.50;29.60;;;;;;8396282;27;20498;-55
2021/01/21 12:55:01;;;;;;;5.33;3.87;;;17.50;29.60;;;;;;8389931;27;20029;-55
2021/01/21 12:59:02;;;;;;;5.63;4.03;;;17.50;29.60;;;;;;8391628;28;20089;-54
2021/01/21 13:03:03;;;;;;;7.07;4.50;;;17.50;29.60;;;;;;8391491;28;20036;-55
2021/01/21 13:07:04;;;;;;;6.47;4.15;;;17.50;29.60;;;;;;8394051;28;20064;-54
2021/01/21 13:11:05;;;;;;;6.80;4.83;;;17.50;29.60;;;;;;8391260;28;20056;-54
2021/01/21 13:15:07;;;;;;;5.93;4.47;;;17.50;29.60;;;;;;8391386;28;20695;-54
2021/01/21 13:19:07;;;;;;;5.15;4.38;;;17.50;29.60;;;;;;8399681;28;20056;-55
2021/01/21 13:23:08;;;;;;;8.80;4.73;;;17.50;29.60;;;;;;8427905;28;20032;-54
2021/01/21 13:27:08;;;;;;;6.50;4.10;;;17.50;29.60;;;;;;8393118;28;20043;-55
2021/01/21 13:31:09;;;;;;;6.07;4.13;;;17.50;29.60;;;;;;8389431;28;20047;-55
2021/01/21 13:35:09;;;;;;;7.13;4.40;;;17.50;29.70;;;;;;8390880;27;20048;-53
2021/01/21 13:39:12;;;;;;;8.53;4.70;;;17.50;29.70;;;;;;8393856;28;22538;-55
2021/01/21 13:43:12;;;;;;;6.57;4.78;;;17.50;29.70;;;;;;8426939;28;20065;-55
2021/01/21 13:47:13;;;;;;;5.70;4.00;;;17.50;29.80;;;;;;8397194;28;20503;-54
2021/01/21 13:51:13;;;;;;;8.13;5.00;;;17.50;29.80;;;;;;8390604;28;20055;-53
2021/01/21 13:55:15;;;;;;;7.60;4.63;;;17.50;29.80;;;;;;8395995;28;20370;-56
2021/01/21 13:59:16;;;;;;;;;;;17.50;29.90;;;;;;8402697;28;20031;-55
2021/01/21 14:03:16;;;;;;;5.70;4.18;;;17.50;29.80;;;;;;8397336;28;20420;-54
2021/01/21 14:07:17;;;;;;;6.77;4.63;;;17.50;29.90;;;;;;8415477;28;20063;-55
2021/01/21 14:11:17;;;;;;;6.20;4.40;;;17.50;29.90;;;;;;8416021;28;20136;-54
2021/01/21 14:15:18;;;;;;;5.37;4.27;;;17.50;29.90;;;;;;8404946;27;20477;-54
2021/01/21 14:19:18;;;;;;;6.50;4.80;;;17.50;29.90;;;;;;8382915;28;20033;-56
2021/01/21 14:23:19;;;;;;;5.57;4.33;;;17.50;29.90;;;;;;8389489;28;20049;-54
2021/01/21 14:27:19;;;;;;;5.70;4.30;;;17.50;29.90;;;;;;8381162;27;20052;-55
2021/01/21 14:31:20;;;;;;;6.40;4.27;;;17.50;29.90;;;;;;8382206;27;20048;-54
2021/01/21 14:35:21;;;;;;;5.80;4.10;;;17.50;29.90;;;;;;8399624;27;20386;-54
2021/01/21 14:39:21;;;;;;;4.40;3.97;;;17.50;29.90;;;;;;8407829;27;20041;-53
2021/01/21 14:43:22;;;;;;;5.80;4.33;;;17.50;29.90;;;;;;8394281;27;20604;-53
2021/01/21 14:47:22;;;;;;;4.77;3.60;;;17.50;30.00;;;;;;8393470;28;20040;-55
2021/01/21 14:51:23;;;;;;;5.87;3.60;;;17.50;30.00;;;;;;8399916;28;20025;-56
2021/01/21 14:55:26;;;;;;;5.97;4.13;;;17.50;30.00;;;;;;8394076;28;20123;-55
2021/01/21 14:59:26;;;;;;;5.78;3.80;;;17.60;30.00;;;;;;8416694;28;20412;-56
2021/01/21 15:03:27;;;;;;;4.70;3.77;;;17.50;30.10;;;;;;8413104;28;20039;-54
2021/01/21 15:07:27;;;;;;;6.70;4.00;;;17.50;30.10;;;;;;8393073;27;20059;-55
2021/01/21 15:11:28;;;;;;;5.43;3.83;;;17.50;30.10;;;;;;8399449;28;20032;-56
2021/01/21 15:15:28;;;;;;;6.17;4.10;;;17.60;30.10;;;;;;8395134;28;20036;-55
2021/01/21 15:19:29;;;;;;;5.13;3.73;;;17.50;30.10;;;;;;8392778;28;20108;-55
2021/01/21 15:23:29;;;;;;;4.43;3.47;;;17.50;30.20;;;;;;8394384;28;20048;-55
2021/01/21 15:27:30;;;;;;;5.23;3.77;;;17.50;30.10;;;;;;8398832;28;20032;-56
2021/01/21 15:31:32;;;;;;;6.13;3.87;;;17.50;30.20;;;;;;8393287;28;20086;-56
2021/01/21 15:35:32;;;;;;;5.43;3.70;;;17.60;30.20;;;;;;8394013;28;20025;-55
2021/01/21 15:39:33;;;;;;;6.17;4.43;;;17.50;30.30;;;;;;8373388;28;20035;-56
2021/01/21 15:43:33;;;;;;;4.83;3.60;;;17.50;30.30;;;;;;8395440;27;20494;-56
2021/01/21 15:47:34;;;;;;;5.33;3.50;;;17.50;30.20;;;;;;8396295;28;20489;-55
2021/01/21 15:51:36;;;;;;;4.67;3.63;;;17.50;30.30;;;;;;8393638;28;20070;-56
2021/01/21 15:55:36;;;;;;;5.38;3.58;;;17.50;30.30;;;;;;8403982;28;20051;-56
2021/01/21 15:59:37;;;;;;;6.07;3.70;;;17.50;30.30;;;;;;8423594;28;20040;-56
2021/01/21 16:03:37;;;;;;;5.50;3.87;;;17.50;30.30;;;;;;8397503;28;20040;-55
2021/01/21 16:07:38;;;;;;;4.57;3.30;;;17.50;30.30;;;;;;8389447;27;20036;-55
2021/01/21 16:11:38;;;;;;;6.17;3.43;;;17.50;30.40;;;;;;8393349;27;20067;-55
2021/01/21 16:15:39;;;;;;;3.40;3.07;;;17.50;30.30;;;;;;8399061;28;20024;-56
2021/01/21 16:19:39;;;;;;;4.63;3.33;;;17.50;30.40;;;;;;8428875;28;20180;-55
2021/01/21 16:23:40;;;;;;;4.37;3.70;;;17.50;30.40;;;;;;8425397;28;20064;-55
2021/01/21 16:27:42;;;;;;;4.53;3.23;;;17.50;30.40;;;;;;8405308;28;20025;-54
2021/01/21 16:31:43;;;;;;;5.10;3.30;;;17.50;30.40;;;;;;8390613;28;20025;-54
2021/01/21 16:35:43;;;;;;;5.65;3.45;;;17.50;30.40;;;;;;8392250;27;20044;-55
2021/01/21 16:39:44;;;;;;;4.13;3.10;;;17.50;30.30;;;;;;8396423;28;20037;-54
2021/01/21 16:43:47;;;;;;;4.67;3.30;;;17.50;30.40;;;;;;8390847;28;20531;-54
2021/01/21 16:47:47;;;;;;;5.63;3.35;;;17.50;30.40;;;;;;8406261;28;20028;-55
2021/01/21 16:51:48;;;;;;;4.27;3.53;;;17.50;30.40;;;;;;8418536;28;20047;-50
2021/01/21 16:55:50;;;;;;;5.77;3.50;;;17.50;30.40;;;;;;8395132;28;20025;-54
2021/01/21 16:59:52;;;;;;;5.85;3.80;;;17.50;30.40;;;;;;8391443;28;20052;-54
2021/01/21 17:03:54;;;;;;;5.20;3.78;;;17.50;30.50;;;;;;8390370;28;20397;-54
2021/01/21 17:07:56;;;;;;;;;;;17.50;30.50;;;;;;8392171;28;20455;-54
2021/01/21 17:11:58;;;;;;;5.47;3.38;;;17.50;30.40;;;;;;8411187;27;19912;-55
2021/01/21 17:15:58;;;;;;;4.78;3.38;;;17.50;30.40;;;;;;8391358;28;20086;-55
2021/01/21 17:19:59;;;;;;;6.53;4.73;;;17.50;30.40;;;;;;8391335;28;20025;-54
2021/01/21 17:23:59;;;;;;;5.50;3.83;;;17.50;30.40;;;;;;8390866;28;20055;-53
2021/01/21 17:28:00;;;;;;;5.23;3.63;;;17.50;30.40;;;;;;8388752;28;20401;-55
2021/01/21 17:32:00;;;;;;;4.97;3.47;;;17.50;30.40;;;;;;8395276;28;20028;-55
2021/01/21 17:36:02;;;;;;;5.87;3.90;;;17.50;30.30;;;;;;8390709;28;20123;-56
2021/01/21 17:40:05;;;;;;;5.32;3.67;;;17.50;30.40;;;;;;8389455;28;20029;-55
2021/01/21 17:44:05;;;;;;;5.15;4.15;;;17.50;30.30;;;;;;8390551;28;20040;-55
2021/01/21 17:48:07;;;;;;;4.57;3.57;;;17.50;30.40;;;;;;8394899;28;20041;-55
2021/01/21 17:52:12;;;;;;;5.30;3.75;;;17.50;30.30;;;;;;8388843;28;20164;-55
2021/01/21 17:56:13;;;;;;;5.13;3.88;;;17.50;30.50;;;;;;8411620;28;20039;-54
2021/01/21 18:00:14;;;;;;;4.82;3.45;;;17.50;30.40;;;;;;8412095;28;20033;-54
2021/01/21 18:04:14;;;;;;;4.23;3.67;;;17.50;30.40;;;;;;8388641;28;20062;-54
2021/01/21 18:08:15;;;;;;;4.97;3.93;;;17.60;30.50;;;;;;8394906;28;20044;-54
2021/01/21 18:12:15;;;;;;;5.03;3.50;;;17.50;30.50;;;;;;8414900;28;20790;-53
2021/01/21 18:16:16;;;;;;;5.90;3.43;;;17.50;30.40;;;;;;8406180;28;20064;-54
2021/01/21 18:20:17;;;;;;;4.53;3.77;;;17.50;30.50;;;;;;8390384;28;20048;-48
2021/01/21 18:24:18;;;;;;;6.80;3.83;;;17.50;30.40;;;;;;8394039;28;20075;-54
2021/01/21 18:28:18;;;;;;;4.97;4.00;;;17.50;30.50;;;;;;8387987;28;20040;-54
2021/01/21 18:32:20;;;;;;;8.83;4.63;;;17.50;30.50;;;;;;8390105;28;20167;-54
2021/01/21 18:36:21;;;;;;;6.72;3.88;;;17.50;30.60;;;;;;8399045;27;20036;-53
2021/01/21 18:40:22;;;;;;;6.37;4.27;;;17.50;30.60;;;;;;8430477;27;20077;-53
2021/01/21 18:44:22;;;;;;;9.43;4.93;;;17.50;30.60;;;;;;8396005;28;20115;-53
2021/01/21 18:48:23;;;;;;;5.43;4.13;;;17.50;30.60;;;;;;8395897;28;20386;-54
2021/01/21 18:52:23;;;;;;;6.37;4.27;;;17.50;30.60;;;;;;8394210;27;20033;-55
2021/01/21 18:56:24;;;;;;;6.63;4.17;;;17.50;30.60;;;;;;8395745;28;20035;-52
2021/01/21 19:00:24;;;;;;;6.53;4.13;;;17.50;30.60;;;;;;8399952;28;20486;-53
2021/01/21 19:04:25;;;;;;;8.13;4.47;;;17.50;30.50;;;;;;8393574;28;20029;-55
2021/01/21 19:08:26;;;;;;;8.00;4.37;;;17.50;30.60;;;;;;8395287;28;20080;-55
2021/01/21 19:12:26;;;;;;;5.17;3.70;;;17.50;30.60;;;;;;8395073;28;20098;-56
2021/01/21 19:16:27;;;;;;;6.70;4.93;;;17.50;30.60;;;;;;8397561;28;20021;-55
2021/01/21 19:20:27;;;;;;;6.20;4.37;;;17.50;30.60;;;;;;8394592;28;20078;-54
2021/01/21 19:24:28;;;;;;;6.27;3.87;;;17.50;30.50;;;;;;8394918;28;20032;-54
2021/01/21 19:28:29;;;;;;;5.70;4.17;;;17.50;30.60;;;;;;8392913;28;20040;-55
2021/01/21 19:32:30;;;;;;;6.57;4.50;;;17.50;30.60;;;;;;8395436;28;20036;-53
2021/01/21 19:36:31;;;;;;;6.18;4.40;;;17.50;30.70;;;;;;8398384;28;20444;-55
2021/01/21 19:40:31;;;;;;;7.23;4.20;;;17.50;30.70;;;;;;8392704;28;20029;-54
2021/01/21 19:44:32;;;;;;;5.53;3.77;;;17.50;30.70;;;;;;8394038;28;20029;-55
2021/01/21 19:48:33;;;;;;;6.33;4.77;;;17.50;30.60;;;;;;8394487;28;20543;-55
2021/01/21 19:52:34;;;;;;;6.57;4.10;;;17.50;30.60;;;;;;8395747;28;20089;-54
2021/01/21 19:56:34;;;;;;;6.05;4.32;;;17.50;30.50;;;;;;8393724;28;20064;-55
2021/01/21 20:00:35;;;;;;;7.00;4.63;;;17.50;30.50;;;;;;8410720;28;20392;-54
2021/01/21 20:04:35;;;;;;;5.63;3.90;;;17.50;30.40;;;;;;8417027;28;20029;-54
2021/01/21 20:08:36;;;;;;;5.47;3.90;;;17.50;30.40;;;;;;8397887;28;20581;-55
2021/01/21 20:12:36;;;;;;;6.80;4.50;;;17.40;30.40;;;;;;8424386;28;20040;-54
2021/01/21 20:16:37;;;;;;;5.23;4.07;;;17.40;30.40;;;;;;8424678;27;20054;-53
2021/01/21 20:20:37;;;;;;;5.40;4.30;;;17.40;30.50;;;;;;8414572;28;20040;-54
2021/01/21 20:24:38;;;;;;;6.13;4.17;;;17.40;30.50;;;;;;8392678;28;20439;-55
2021/01/21 20:28:39;;;;;;;5.67;4.33;;;17.30;30.50;;;;;;8395487;27;20060;-54
2021/01/21 20:32:40;;;;;;;6.20;4.40;;;17.30;30.40;;;;;;8392581;28;20036;-54
2021/01/21 20:36:40;;;;;;;5.03;4.28;;;17.30;30.50;;;;;;8392385;28;20041;-54
2021/01/21 20:40:41;;;;;;;6.37;4.43;;;17.30;30.60;;;;;;8390831;28;20110;-55
2021/01/21 20:44:42;;;;;;;8.60;4.97;;;17.30;30.60;;;;;;8396646;28;20486;-54
2021/01/21 20:48:42;;;;;;;6.03;4.13;;;17.20;30.70;;;;;;8392023;28;20044;-54
2021/01/21 20:52:43;;;;;;;7.53;4.97;;;17.20;30.70;;;;;;8390417;27;20077;-54
2021/01/21 20:56:43;;;;;;;6.97;4.10;;;17.30;30.80;;;;;;8400080;28;20032;-54
2021/01/21 21:00:44;;;;;;;8.07;4.57;;;17.30;30.80;;;;;;8429395;28;20039;-53